sensor_id;sensor_type;location;lat;lon;timestamp;P1;durP1;ratioP1;P2;durP2;ratioP2
26038;SDS011;13815;52.374;4.882;2022-07-29T00:01:14;27.42;;;22.50;;
26038;SDS011;13815;52.374;4.882;2022-07-29T00:03:40;27.83;;;22.48;;
26038;SDS011;13815;52.374;4.882;2022-07-29T00:06:05;27.90;;;22.77;;
26038;SDS011;13815;52.374;4.882;2022-07-29T00:08:31;27.52;;;22.55;;
26038;SDS011;13815;52.374;4.882;2022-07-29T00:10:56;27.70;;;22.52;;
26038;SDS011;13815;52.374;4.882;2022-07-29T00:13:22;28.20;;;22.65;;
26038;SDS011;13815;52.374;4.882;2022-07-29T00:15:47;27.77;;;22.55;;
26038;SDS011;13815;52.374;4.882;2022-07-29T00:18:13;28.35;;;22.95;;
26038;SDS011;13815;52.374;4.882;2022-07-29T00:20:38;27.92;;;22.75;;
26038;SDS011;13815;52.374;4.882;2022-07-29T00:23:03;27.00;;;22.25;;
26038;SDS011;13815;52.374;4.882;2022-07-29T00:25:29;28.30;;;22.67;;
26038;SDS011;13815;52.374;4.882;2022-07-29T00:27:54;28.17;;;22.83;;
26038;SDS011;13815;52.374;4.882;2022-07-29T00:30:20;27.52;;;22.45;;
26038;SDS011;13815;52.374;4.882;2022-07-29T00:32:45;27.77;;;22.73;;
26038;SDS011;13815;52.374;4.882;2022-07-29T00:35:10;28.23;;;23.02;;
26038;SDS011;13815;52.374;4.882;2022-07-29T00:37:54;28.20;;;22.92;;
26038;SDS011;13815;52.374;4.882;2022-07-29T00:40:20;27.98;;;22.85;;
26038;SDS011;13815;52.374;4.882;2022-07-29T00:42:46;28.17;;;22.65;;
26038;SDS011;13815;52.374;4.882;2022-07-29T00:45:13;27.60;;;22.02;;
26038;SDS011;13815;52.374;4.882;2022-07-29T00:47:38;28.48;;;23.00;;
26038;SDS011;13815;52.374;4.882;2022-07-29T00:50:05;28.33;;;22.80;;
26038;SDS011;13815;52.374;4.882;2022-07-29T00:52:31;28.33;;;22.83;;
26038;SDS011;13815;52.374;4.882;2022-07-29T00:54:58;28.20;;;23.02;;
26038;SDS011;13815;52.374;4.882;2022-07-29T00:57:23;28.23;;;22.15;;
26038;SDS011;13815;52.374;4.882;2022-07-29T00:59:49;27.17;;;22.35;;
26038;SDS011;13815;52.374;4.882;2022-07-29T01:02:14;26.73;;;22.27;;
26038;SDS011;13815;52.374;4.882;2022-07-29T01:04:39;27.23;;;22.15;;
26038;SDS011;13815;52.374;4.882;2022-07-29T01:07:05;27.02;;;21.88;;
26038;SDS011;13815;52.374;4.882;2022-07-29T01:09:31;26.83;;;21.67;;
26038;SDS011;13815;52.374;4.882;2022-07-29T01:11:57;28.63;;;22.80;;
26038;SDS011;13815;52.374;4.882;2022-07-29T01:14:23;27.88;;;22.35;;
26038;SDS011;13815;52.374;4.882;2022-07-29T01:16:51;27.40;;;22.08;;
26038;SDS011;13815;52.374;4.882;2022-07-29T01:22:17;27.23;;;22.23;;
26038;SDS011;13815;52.374;4.882;2022-07-29T01:30:27;28.15;;;22.65;;
26038;SDS011;13815;52.374;4.882;2022-07-29T01:32:56;27.60;;;22.50;;
26038;SDS011;13815;52.374;4.882;2022-07-29T01:35:29;26.88;;;22.10;;
26038;SDS011;13815;52.374;4.882;2022-07-29T01:38:05;27.77;;;22.60;;
26038;SDS011;13815;52.374;4.882;2022-07-29T01:40:45;26.92;;;22.17;;
26038;SDS011;13815;52.374;4.882;2022-07-29T01:43:17;27.00;;;22.08;;
26038;SDS011;13815;52.374;4.882;2022-07-29T01:45:56;27.27;;;22.33;;
26038;SDS011;13815;52.374;4.882;2022-07-29T01:48:34;27.42;;;22.50;;
26038;SDS011;13815;52.374;4.882;2022-07-29T01:51:14;27.58;;;22.50;;
26038;SDS011;13815;52.374;4.882;2022-07-29T01:53:47;28.35;;;22.85;;
26038;SDS011;13815;52.374;4.882;2022-07-29T01:56:17;28.75;;;23.10;;
26038;SDS011;13815;52.374;4.882;2022-07-29T01:58:43;28.58;;;23.13;;
26038;SDS011;13815;52.374;4.882;2022-07-29T02:01:10;28.33;;;22.90;;
26038;SDS011;13815;52.374;4.882;2022-07-29T02:03:36;27.77;;;22.65;;
26038;SDS011;13815;52.374;4.882;2022-07-29T02:06:03;27.20;;;22.45;;
26038;SDS011;13815;52.374;4.882;2022-07-29T02:08:30;27.67;;;22.70;;
26038;SDS011;13815;52.374;4.882;2022-07-29T02:10:57;27.67;;;22.70;;
26038;SDS011;13815;52.374;4.882;2022-07-29T02:13:23;27.55;;;22.60;;
26038;SDS011;13815;52.374;4.882;2022-07-29T02:15:50;27.40;;;22.52;;
26038;SDS011;13815;52.374;4.882;2022-07-29T02:18:17;27.00;;;22.65;;
26038;SDS011;13815;52.374;4.882;2022-07-29T02:20:48;27.02;;;22.73;;
26038;SDS011;13815;52.374;4.882;2022-07-29T02:23:15;26.80;;;22.60;;
26038;SDS011;13815;52.374;4.882;2022-07-29T02:25:44;27.15;;;22.52;;
26038;SDS011;13815;52.374;4.882;2022-07-29T02:28:15;26.90;;;22.27;;
26038;SDS011;13815;52.374;4.882;2022-07-29T02:30:41;28.20;;;23.10;;
26038;SDS011;13815;52.374;4.882;2022-07-29T02:33:08;27.55;;;22.73;;
26038;SDS011;13815;52.374;4.882;2022-07-29T02:35:35;28.00;;;22.73;;
26038;SDS011;13815;52.374;4.882;2022-07-29T02:38:00;27.38;;;22.52;;
26038;SDS011;13815;52.374;4.882;2022-07-29T02:40:45;26.95;;;22.05;;
26038;SDS011;13815;52.374;4.882;2022-07-29T02:43:11;27.58;;;22.40;;
26038;SDS011;13815;52.374;4.882;2022-07-29T02:45:36;27.55;;;22.45;;
26038;SDS011;13815;52.374;4.882;2022-07-29T02:48:05;27.48;;;22.42;;
26038;SDS011;13815;52.374;4.882;2022-07-29T02:50:34;27.00;;;22.23;;
26038;SDS011;13815;52.374;4.882;2022-07-29T02:53:07;27.67;;;22.77;;
26038;SDS011;13815;52.374;4.882;2022-07-29T02:55:45;27.13;;;22.17;;
26038;SDS011;13815;52.374;4.882;2022-07-29T02:58:21;27.75;;;22.25;;
26038;SDS011;13815;52.374;4.882;2022-07-29T03:00:57;27.75;;;22.25;;
26038;SDS011;13815;52.374;4.882;2022-07-29T03:03:24;26.67;;;22.08;;
26038;SDS011;13815;52.374;4.882;2022-07-29T03:05:57;27.40;;;22.25;;
26038;SDS011;13815;52.374;4.882;2022-07-29T03:08:23;26.48;;;22.17;;
26038;SDS011;13815;52.374;4.882;2022-07-29T03:10:49;26.45;;;22.83;;
26038;SDS011;13815;52.374;4.882;2022-07-29T03:13:15;27.45;;;22.95;;
26038;SDS011;13815;52.374;4.882;2022-07-29T03:15:42;27.27;;;22.70;;
26038;SDS011;13815;52.374;4.882;2022-07-29T03:18:08;27.98;;;22.90;;
26038;SDS011;13815;52.374;4.882;2022-07-29T03:20:34;27.50;;;22.63;;
26038;SDS011;13815;52.374;4.882;2022-07-29T03:22:59;27.15;;;21.95;;
26038;SDS011;13815;52.374;4.882;2022-07-29T03:25:25;26.98;;;21.90;;
26038;SDS011;13815;52.374;4.882;2022-07-29T03:27:52;26.85;;;21.80;;
26038;SDS011;13815;52.374;4.882;2022-07-29T03:30:17;27.65;;;22.83;;
26038;SDS011;13815;52.374;4.882;2022-07-29T03:32:42;27.58;;;22.10;;
26038;SDS011;13815;52.374;4.882;2022-07-29T03:35:08;28.23;;;23.13;;
26038;SDS011;13815;52.374;4.882;2022-07-29T03:37:33;27.77;;;22.92;;
26038;SDS011;13815;52.374;4.882;2022-07-29T03:40:02;29.08;;;23.38;;
26038;SDS011;13815;52.374;4.882;2022-07-29T03:42:30;28.55;;;23.33;;
26038;SDS011;13815;52.374;4.882;2022-07-29T03:44:57;28.70;;;23.40;;
26038;SDS011;13815;52.374;4.882;2022-07-29T03:47:24;28.65;;;23.35;;
26038;SDS011;13815;52.374;4.882;2022-07-29T03:49:51;27.88;;;23.08;;
26038;SDS011;13815;52.374;4.882;2022-07-29T03:52:18;28.77;;;23.48;;
26038;SDS011;13815;52.374;4.882;2022-07-29T03:54:44;27.88;;;22.52;;
26038;SDS011;13815;52.374;4.882;2022-07-29T03:57:10;27.48;;;22.50;;
26038;SDS011;13815;52.374;4.882;2022-07-29T03:59:36;28.00;;;22.55;;
26038;SDS011;13815;52.374;4.882;2022-07-29T04:02:03;25.75;;;22.05;;
26038;SDS011;13815;52.374;4.882;2022-07-29T04:04:32;27.05;;;22.35;;
26038;SDS011;13815;52.374;4.882;2022-07-29T04:06:58;26.90;;;22.30;;
26038;SDS011;13815;52.374;4.882;2022-07-29T04:09:23;26.42;;;21.88;;
26038;SDS011;13815;52.374;4.882;2022-07-29T04:11:49;26.25;;;21.98;;
26038;SDS011;13815;52.374;4.882;2022-07-29T04:14:15;26.60;;;21.70;;
26038;SDS011;13815;52.374;4.882;2022-07-29T04:16:40;25.98;;;21.65;;
26038;SDS011;13815;52.374;4.882;2022-07-29T04:19:05;25.20;;;21.17;;
26038;SDS011;13815;52.374;4.882;2022-07-29T04:21:31;25.70;;;20.98;;
26038;SDS011;13815;52.374;4.882;2022-07-29T04:24:02;25.17;;;20.90;;
26038;SDS011;13815;52.374;4.882;2022-07-29T04:26:28;25.38;;;21.17;;
26038;SDS011;13815;52.374;4.882;2022-07-29T04:28:53;25.92;;;21.25;;
26038;SDS011;13815;52.374;4.882;2022-07-29T04:31:19;25.80;;;20.98;;
26038;SDS011;13815;52.374;4.882;2022-07-29T04:33:44;25.75;;;21.25;;
26038;SDS011;13815;52.374;4.882;2022-07-29T04:36:10;24.20;;;20.92;;
26038;SDS011;13815;52.374;4.882;2022-07-29T04:38:36;24.35;;;20.67;;
26038;SDS011;13815;52.374;4.882;2022-07-29T04:41:02;24.30;;;20.77;;
26038;SDS011;13815;52.374;4.882;2022-07-29T04:43:27;23.52;;;20.42;;
26038;SDS011;13815;52.374;4.882;2022-07-29T04:45:52;22.52;;;20.13;;
26038;SDS011;13815;52.374;4.882;2022-07-29T04:48:18;22.67;;;20.27;;
26038;SDS011;13815;52.374;4.882;2022-07-29T04:50:43;22.77;;;20.38;;
26038;SDS011;13815;52.374;4.882;2022-07-29T04:53:09;22.90;;;20.35;;
26038;SDS011;13815;52.374;4.882;2022-07-29T04:55:34;22.70;;;20.30;;
26038;SDS011;13815;52.374;4.882;2022-07-29T04:58:01;22.98;;;20.50;;
26038;SDS011;13815;52.374;4.882;2022-07-29T05:00:26;22.98;;;20.48;;
26038;SDS011;13815;52.374;4.882;2022-07-29T05:02:52;24.40;;;21.90;;
26038;SDS011;13815;52.374;4.882;2022-07-29T05:05:17;23.92;;;21.42;;
26038;SDS011;13815;52.374;4.882;2022-07-29T05:07:42;22.95;;;20.55;;
26038;SDS011;13815;52.374;4.882;2022-07-29T05:10:08;22.77;;;20.33;;
26038;SDS011;13815;52.374;4.882;2022-07-29T05:12:34;23.52;;;21.02;;
26038;SDS011;13815;52.374;4.882;2022-07-29T05:14:59;22.52;;;20.15;;
26038;SDS011;13815;52.374;4.882;2022-07-29T05:17:25;22.33;;;20.02;;
26038;SDS011;13815;52.374;4.882;2022-07-29T05:19:50;22.45;;;20.08;;
26038;SDS011;13815;52.374;4.882;2022-07-29T05:22:17;23.15;;;20.65;;
26038;SDS011;13815;52.374;4.882;2022-07-29T05:24:43;23.05;;;20.55;;
26038;SDS011;13815;52.374;4.882;2022-07-29T05:27:08;22.15;;;19.85;;
26038;SDS011;13815;52.374;4.882;2022-07-29T05:29:34;22.38;;;20.08;;
26038;SDS011;13815;52.374;4.882;2022-07-29T05:31:59;22.35;;;20.05;;
26038;SDS011;13815;52.374;4.882;2022-07-29T05:34:25;22.73;;;20.33;;
26038;SDS011;13815;52.374;4.882;2022-07-29T05:36:50;22.67;;;20.27;;
26038;SDS011;13815;52.374;4.882;2022-07-29T05:39:16;23.27;;;20.80;;
26038;SDS011;13815;52.374;4.882;2022-07-29T05:41:41;22.48;;;20.08;;
26038;SDS011;13815;52.374;4.882;2022-07-29T05:44:06;23.17;;;20.77;;
26038;SDS011;13815;52.374;4.882;2022-07-29T05:46:32;21.60;;;19.50;;
26038;SDS011;13815;52.374;4.882;2022-07-29T05:48:57;21.45;;;19.35;;
26038;SDS011;13815;52.374;4.882;2022-07-29T05:51:23;20.95;;;19.05;;
26038;SDS011;13815;52.374;4.882;2022-07-29T05:53:48;20.75;;;18.90;;
26038;SDS011;13815;52.374;4.882;2022-07-29T05:56:14;20.30;;;18.40;;
26038;SDS011;13815;52.374;4.882;2022-07-29T05:58:39;19.42;;;17.63;;
26038;SDS011;13815;52.374;4.882;2022-07-29T06:01:04;18.60;;;16.90;;
26038;SDS011;13815;52.374;4.882;2022-07-29T06:03:30;17.45;;;16.05;;
26038;SDS011;13815;52.374;4.882;2022-07-29T06:05:55;16.95;;;15.75;;
26038;SDS011;13815;52.374;4.882;2022-07-29T06:08:21;16.35;;;15.15;;
26038;SDS011;13815;52.374;4.882;2022-07-29T06:10:46;16.35;;;15.35;;
26038;SDS011;13815;52.374;4.882;2022-07-29T06:13:12;16.00;;;15.10;;
26038;SDS011;13815;52.374;4.882;2022-07-29T06:15:37;15.55;;;14.75;;
26038;SDS011;13815;52.374;4.882;2022-07-29T06:18:03;15.15;;;14.38;;
26038;SDS011;13815;52.374;4.882;2022-07-29T06:20:28;15.00;;;14.30;;
26038;SDS011;13815;52.374;4.882;2022-07-29T06:22:54;14.90;;;14.20;;
26038;SDS011;13815;52.374;4.882;2022-07-29T06:25:20;15.00;;;14.20;;
26038;SDS011;13815;52.374;4.882;2022-07-29T06:27:45;16.10;;;15.10;;
26038;SDS011;13815;52.374;4.882;2022-07-29T06:30:11;16.00;;;15.00;;
26038;SDS011;13815;52.374;4.882;2022-07-29T06:32:37;16.58;;;15.52;;
26038;SDS011;13815;52.374;4.882;2022-07-29T06:35:02;17.35;;;16.05;;
26038;SDS011;13815;52.374;4.882;2022-07-29T06:37:28;17.10;;;15.88;;
26038;SDS011;13815;52.374;4.882;2022-07-29T06:39:53;17.38;;;16.08;;
26038;SDS011;13815;52.374;4.882;2022-07-29T06:42:45;18.20;;;16.80;;
26038;SDS011;13815;52.374;4.882;2022-07-29T06:45:10;18.10;;;16.70;;
26038;SDS011;13815;52.374;4.882;2022-07-29T06:47:36;17.60;;;16.30;;
26038;SDS011;13815;52.374;4.882;2022-07-29T06:50:01;18.30;;;16.80;;
26038;SDS011;13815;52.374;4.882;2022-07-29T06:52:27;17.73;;;16.33;;
26038;SDS011;13815;52.374;4.882;2022-07-29T06:54:52;18.38;;;16.88;;
26038;SDS011;13815;52.374;4.882;2022-07-29T06:57:19;17.55;;;16.25;;
26038;SDS011;13815;52.374;4.882;2022-07-29T06:59:45;17.23;;;15.93;;
26038;SDS011;13815;52.374;4.882;2022-07-29T07:02:11;18.92;;;17.33;;
26038;SDS011;13815;52.374;4.882;2022-07-29T07:04:36;20.50;;;18.60;;
26038;SDS011;13815;52.374;4.882;2022-07-29T07:07:03;21.48;;;19.48;;
26038;SDS011;13815;52.374;4.882;2022-07-29T07:09:29;21.30;;;19.40;;
26038;SDS011;13815;52.374;4.882;2022-07-29T07:11:54;21.33;;;19.42;;
26038;SDS011;13815;52.374;4.882;2022-07-29T07:14:19;20.70;;;18.90;;
26038;SDS011;13815;52.374;4.882;2022-07-29T07:16:45;20.23;;;18.42;;
26038;SDS011;13815;52.374;4.882;2022-07-29T07:19:10;21.00;;;19.10;;
26038;SDS011;13815;52.374;4.882;2022-07-29T07:21:35;22.23;;;20.23;;
26038;SDS011;13815;52.374;4.882;2022-07-29T07:24:01;21.73;;;19.63;;
26038;SDS011;13815;52.374;4.882;2022-07-29T07:26:27;22.10;;;20.00;;
26038;SDS011;13815;52.374;4.882;2022-07-29T07:28:52;21.05;;;19.15;;
26038;SDS011;13815;52.374;4.882;2022-07-29T07:31:18;20.40;;;18.60;;
26038;SDS011;13815;52.374;4.882;2022-07-29T07:33:44;20.60;;;18.60;;
26038;SDS011;13815;52.374;4.882;2022-07-29T07:36:09;20.17;;;18.33;;
26038;SDS011;13815;52.374;4.882;2022-07-29T07:38:35;21.75;;;19.70;;
26038;SDS011;13815;52.374;4.882;2022-07-29T07:41:01;21.65;;;19.52;;
26038;SDS011;13815;52.374;4.882;2022-07-29T07:43:27;22.77;;;20.48;;
26038;SDS011;13815;52.374;4.882;2022-07-29T07:45:52;22.17;;;20.08;;
26038;SDS011;13815;52.374;4.882;2022-07-29T07:48:18;22.33;;;20.13;;
26038;SDS011;13815;52.374;4.882;2022-07-29T07:50:43;22.48;;;20.17;;
26038;SDS011;13815;52.374;4.882;2022-07-29T07:53:09;23.95;;;21.55;;
26038;SDS011;13815;52.374;4.882;2022-07-29T07:55:39;23.02;;;20.63;;
26038;SDS011;13815;52.374;4.882;2022-07-29T07:58:05;23.63;;;21.17;;
26038;SDS011;13815;52.374;4.882;2022-07-29T08:00:31;24.50;;;22.10;;
26038;SDS011;13815;52.374;4.882;2022-07-29T08:02:57;23.50;;;21.20;;
26038;SDS011;13815;52.374;4.882;2022-07-29T08:05:26;23.70;;;21.30;;
26038;SDS011;13815;52.374;4.882;2022-07-29T08:07:51;23.58;;;21.17;;
26038;SDS011;13815;52.374;4.882;2022-07-29T08:10:17;25.17;;;22.48;;
26038;SDS011;13815;52.374;4.882;2022-07-29T08:13:05;25.23;;;22.55;;
26038;SDS011;13815;52.374;4.882;2022-07-29T08:15:32;25.33;;;22.63;;
26038;SDS011;13815;52.374;4.882;2022-07-29T08:18:00;25.25;;;22.55;;
26038;SDS011;13815;52.374;4.882;2022-07-29T08:20:26;25.90;;;23.10;;
26038;SDS011;13815;52.374;4.882;2022-07-29T08:22:51;25.38;;;22.67;;
26038;SDS011;13815;52.374;4.882;2022-07-29T08:25:17;25.73;;;22.92;;
26038;SDS011;13815;52.374;4.882;2022-07-29T08:27:45;26.38;;;23.48;;
26038;SDS011;13815;52.374;4.882;2022-07-29T08:30:10;25.73;;;22.77;;
26038;SDS011;13815;52.374;4.882;2022-07-29T08:32:36;25.05;;;22.27;;
26038;SDS011;13815;52.374;4.882;2022-07-29T08:35:01;25.33;;;22.48;;
26038;SDS011;13815;52.374;4.882;2022-07-29T08:37:27;25.85;;;23.05;;
26038;SDS011;13815;52.374;4.882;2022-07-29T08:39:52;25.42;;;22.60;;
26038;SDS011;13815;52.374;4.882;2022-07-29T08:42:17;25.20;;;22.38;;
26038;SDS011;13815;52.374;4.882;2022-07-29T08:44:43;25.67;;;22.88;;
26038;SDS011;13815;52.374;4.882;2022-07-29T08:47:09;25.88;;;23.08;;
26038;SDS011;13815;52.374;4.882;2022-07-29T08:49:35;27.15;;;24.23;;
26038;SDS011;13815;52.374;4.882;2022-07-29T08:52:01;25.90;;;22.90;;
26038;SDS011;13815;52.374;4.882;2022-07-29T08:54:26;27.02;;;23.92;;
26038;SDS011;13815;52.374;4.882;2022-07-29T08:56:52;27.40;;;24.40;;
26038;SDS011;13815;52.374;4.882;2022-07-29T08:59:19;27.45;;;24.08;;
26038;SDS011;13815;52.374;4.882;2022-07-29T09:01:46;27.17;;;23.85;;
26038;SDS011;13815;52.374;4.882;2022-07-29T09:04:12;28.27;;;24.20;;
26038;SDS011;13815;52.374;4.882;2022-07-29T09:06:40;28.75;;;24.70;;
26038;SDS011;13815;52.374;4.882;2022-07-29T09:09:08;28.95;;;24.88;;
26038;SDS011;13815;52.374;4.882;2022-07-29T09:11:34;28.27;;;24.17;;
26038;SDS011;13815;52.374;4.882;2022-07-29T09:13:59;30.00;;;25.45;;
26038;SDS011;13815;52.374;4.882;2022-07-29T09:16:25;28.00;;;24.20;;
26038;SDS011;13815;52.374;4.882;2022-07-29T09:18:50;28.90;;;25.23;;
26038;SDS011;13815;52.374;4.882;2022-07-29T09:21:17;28.13;;;24.63;;
26038;SDS011;13815;52.374;4.882;2022-07-29T09:24:11;28.73;;;24.92;;
26038;SDS011;13815;52.374;4.882;2022-07-29T09:26:42;29.08;;;25.50;;
26038;SDS011;13815;52.374;4.882;2022-07-29T09:29:13;29.88;;;25.52;;
26038;SDS011;13815;52.374;4.882;2022-07-29T09:31:40;28.95;;;24.85;;
26038;SDS011;13815;52.374;4.882;2022-07-29T09:34:07;29.75;;;25.38;;
26038;SDS011;13815;52.374;4.882;2022-07-29T09:39:04;29.15;;;24.95;;
26038;SDS011;13815;52.374;4.882;2022-07-29T09:41:29;29.58;;;25.38;;
26038;SDS011;13815;52.374;4.882;2022-07-29T09:44:09;28.83;;;25.30;;
26038;SDS011;13815;52.374;4.882;2022-07-29T09:46:34;30.75;;;26.40;;
26038;SDS011;13815;52.374;4.882;2022-07-29T09:51:36;30.77;;;26.70;;
26038;SDS011;13815;52.374;4.882;2022-07-29T09:54:02;31.65;;;26.90;;
26038;SDS011;13815;52.374;4.882;2022-07-29T09:56:46;32.60;;;27.75;;
26038;SDS011;13815;52.374;4.882;2022-07-29T09:59:12;32.30;;;27.05;;
26038;SDS011;13815;52.374;4.882;2022-07-29T10:01:38;32.75;;;26.92;;
26038;SDS011;13815;52.374;4.882;2022-07-29T10:04:04;32.15;;;26.30;;
26038;SDS011;13815;52.374;4.882;2022-07-29T10:06:29;31.58;;;25.75;;
26038;SDS011;13815;52.374;4.882;2022-07-29T10:09:02;32.15;;;26.90;;
26038;SDS011;13815;52.374;4.882;2022-07-29T10:11:33;31.35;;;25.98;;
26038;SDS011;13815;52.374;4.882;2022-07-29T10:13:58;31.25;;;25.60;;
26038;SDS011;13815;52.374;4.882;2022-07-29T10:16:24;31.83;;;26.20;;
26038;SDS011;13815;52.374;4.882;2022-07-29T10:18:50;31.30;;;25.85;;
26038;SDS011;13815;52.374;4.882;2022-07-29T10:21:18;31.80;;;26.00;;
26038;SDS011;13815;52.374;4.882;2022-07-29T10:23:44;31.98;;;26.67;;
26038;SDS011;13815;52.374;4.882;2022-07-29T10:26:10;32.05;;;25.80;;
26038;SDS011;13815;52.374;4.882;2022-07-29T10:28:35;32.15;;;25.23;;
26038;SDS011;13815;52.374;4.882;2022-07-29T10:31:02;31.55;;;23.98;;
26038;SDS011;13815;52.374;4.882;2022-07-29T10:39:19;33.88;;;26.15;;
26038;SDS011;13815;52.374;4.882;2022-07-29T10:44:32;33.35;;;25.38;;
26038;SDS011;13815;52.374;4.882;2022-07-29T10:46:58;33.05;;;26.13;;
26038;SDS011;13815;52.374;4.882;2022-07-29T10:49:26;33.70;;;26.15;;
26038;SDS011;13815;52.374;4.882;2022-07-29T10:51:55;32.80;;;25.55;;
26038;SDS011;13815;52.374;4.882;2022-07-29T10:57:19;34.08;;;26.70;;
26038;SDS011;13815;52.374;4.882;2022-07-29T10:59:46;34.20;;;26.20;;
26038;SDS011;13815;52.374;4.882;2022-07-29T11:07:21;35.58;;;27.85;;
26038;SDS011;13815;52.374;4.882;2022-07-29T11:15:03;35.73;;;26.57;;
26038;SDS011;13815;52.374;4.882;2022-07-29T11:20:32;35.55;;;26.90;;
26038;SDS011;13815;52.374;4.882;2022-07-29T11:22:58;37.20;;;28.55;;
26038;SDS011;13815;52.374;4.882;2022-07-29T11:25:24;36.25;;;27.88;;
26038;SDS011;13815;52.374;4.882;2022-07-29T11:27:49;36.90;;;28.13;;
26038;SDS011;13815;52.374;4.882;2022-07-29T11:30:16;35.75;;;27.20;;
26038;SDS011;13815;52.374;4.882;2022-07-29T11:32:42;36.00;;;27.02;;
26038;SDS011;13815;52.374;4.882;2022-07-29T11:35:22;35.97;;;27.05;;
26038;SDS011;13815;52.374;4.882;2022-07-29T11:43:46;35.60;;;26.65;;
26038;SDS011;13815;52.374;4.882;2022-07-29T11:46:12;34.63;;;25.67;;
26038;SDS011;13815;52.374;4.882;2022-07-29T11:48:41;33.75;;;25.15;;
26038;SDS011;13815;52.374;4.882;2022-07-29T11:51:10;33.13;;;25.33;;
26038;SDS011;13815;52.374;4.882;2022-07-29T11:53:39;33.55;;;25.85;;
26038;SDS011;13815;52.374;4.882;2022-07-29T11:56:07;34.35;;;26.10;;
26038;SDS011;13815;52.374;4.882;2022-07-29T11:58:33;33.92;;;25.85;;
26038;SDS011;13815;52.374;4.882;2022-07-29T12:00:58;33.35;;;25.42;;
26038;SDS011;13815;52.374;4.882;2022-07-29T12:03:25;34.17;;;26.10;;
26038;SDS011;13815;52.374;4.882;2022-07-29T12:05:51;34.13;;;26.35;;
26038;SDS011;13815;52.374;4.882;2022-07-29T12:08:21;33.13;;;25.50;;
26038;SDS011;13815;52.374;4.882;2022-07-29T12:10:48;32.35;;;25.40;;
26038;SDS011;13815;52.374;4.882;2022-07-29T12:13:17;33.50;;;25.88;;
26038;SDS011;13815;52.374;4.882;2022-07-29T12:15:54;33.83;;;25.40;;
26038;SDS011;13815;52.374;4.882;2022-07-29T12:18:21;33.53;;;25.65;;
26038;SDS011;13815;52.374;4.882;2022-07-29T12:20:47;33.08;;;25.33;;
26038;SDS011;13815;52.374;4.882;2022-07-29T12:23:13;33.75;;;25.38;;
26038;SDS011;13815;52.374;4.882;2022-07-29T12:25:40;33.88;;;25.75;;
26038;SDS011;13815;52.374;4.882;2022-07-29T12:28:07;34.15;;;26.08;;
26038;SDS011;13815;52.374;4.882;2022-07-29T12:33:12;32.80;;;25.42;;
26038;SDS011;13815;52.374;4.882;2022-07-29T12:35:42;33.00;;;25.42;;
26038;SDS011;13815;52.374;4.882;2022-07-29T12:38:10;33.40;;;25.85;;
26038;SDS011;13815;52.374;4.882;2022-07-29T12:40:36;33.42;;;25.85;;
26038;SDS011;13815;52.374;4.882;2022-07-29T12:45:38;33.22;;;25.90;;
26038;SDS011;13815;52.374;4.882;2022-07-29T12:48:05;33.45;;;26.02;;
26038;SDS011;13815;52.374;4.882;2022-07-29T12:50:33;32.92;;;25.65;;
26038;SDS011;13815;52.374;4.882;2022-07-29T12:53:08;32.72;;;25.55;;
26038;SDS011;13815;52.374;4.882;2022-07-29T12:55:39;32.85;;;25.70;;
26038;SDS011;13815;52.374;4.882;2022-07-29T12:58:04;32.45;;;25.75;;
26038;SDS011;13815;52.374;4.882;2022-07-29T13:00:29;33.78;;;24.70;;
26038;SDS011;13815;52.374;4.882;2022-07-29T13:02:58;32.67;;;24.98;;
26038;SDS011;13815;52.374;4.882;2022-07-29T13:05:37;33.72;;;24.95;;
26038;SDS011;13815;52.374;4.882;2022-07-29T13:08:10;33.30;;;24.35;;
26038;SDS011;13815;52.374;4.882;2022-07-29T13:10:43;33.83;;;25.10;;
26038;SDS011;13815;52.374;4.882;2022-07-29T13:13:09;33.50;;;25.38;;
26038;SDS011;13815;52.374;4.882;2022-07-29T13:15:37;33.30;;;24.58;;
26038;SDS011;13815;52.374;4.882;2022-07-29T13:21:12;33.67;;;24.70;;
26038;SDS011;13815;52.374;4.882;2022-07-29T13:23:38;32.25;;;23.98;;
26038;SDS011;13815;52.374;4.882;2022-07-29T13:26:08;32.55;;;24.40;;
26038;SDS011;13815;52.374;4.882;2022-07-29T13:28:34;33.35;;;24.27;;
26038;SDS011;13815;52.374;4.882;2022-07-29T13:31:00;33.22;;;24.25;;
26038;SDS011;13815;52.374;4.882;2022-07-29T13:33:25;33.13;;;24.02;;
26038;SDS011;13815;52.374;4.882;2022-07-29T13:35:50;33.50;;;24.25;;
26038;SDS011;13815;52.374;4.882;2022-07-29T13:38:16;33.10;;;24.35;;
26038;SDS011;13815;52.374;4.882;2022-07-29T13:40:41;33.72;;;24.33;;
26038;SDS011;13815;52.374;4.882;2022-07-29T13:43:10;34.58;;;23.95;;
26038;SDS011;13815;52.374;4.882;2022-07-29T13:45:35;35.25;;;24.65;;
26038;SDS011;13815;52.374;4.882;2022-07-29T13:48:01;35.35;;;24.40;;
26038;SDS011;13815;52.374;4.882;2022-07-29T13:50:26;34.45;;;24.85;;
26038;SDS011;13815;52.374;4.882;2022-07-29T13:52:52;34.85;;;25.27;;
26038;SDS011;13815;52.374;4.882;2022-07-29T13:55:20;33.88;;;25.02;;
26038;SDS011;13815;52.374;4.882;2022-07-29T13:57:45;34.60;;;24.83;;
26038;SDS011;13815;52.374;4.882;2022-07-29T14:00:11;33.92;;;25.10;;
26038;SDS011;13815;52.374;4.882;2022-07-29T14:02:37;33.05;;;24.80;;
26038;SDS011;13815;52.374;4.882;2022-07-29T14:05:03;34.13;;;25.08;;
26038;SDS011;13815;52.374;4.882;2022-07-29T14:07:29;34.10;;;25.10;;
26038;SDS011;13815;52.374;4.882;2022-07-29T14:09:55;36.35;;;25.75;;
26038;SDS011;13815;52.374;4.882;2022-07-29T14:12:25;34.83;;;24.85;;
26038;SDS011;13815;52.374;4.882;2022-07-29T14:14:51;34.95;;;25.00;;
26038;SDS011;13815;52.374;4.882;2022-07-29T14:17:16;35.08;;;25.10;;
26038;SDS011;13815;52.374;4.882;2022-07-29T14:19:42;35.42;;;25.88;;
26038;SDS011;13815;52.374;4.882;2022-07-29T14:22:08;34.30;;;24.98;;
26038;SDS011;13815;52.374;4.882;2022-07-29T14:24:36;35.35;;;25.50;;
26038;SDS011;13815;52.374;4.882;2022-07-29T14:27:03;35.35;;;25.15;;
26038;SDS011;13815;52.374;4.882;2022-07-29T14:29:29;34.60;;;24.83;;
26038;SDS011;13815;52.374;4.882;2022-07-29T14:31:54;35.42;;;25.23;;
26038;SDS011;13815;52.374;4.882;2022-07-29T14:34:19;35.40;;;25.48;;
26038;SDS011;13815;52.374;4.882;2022-07-29T14:36:45;34.38;;;24.52;;
26038;SDS011;13815;52.374;4.882;2022-07-29T14:39:10;34.67;;;24.88;;
26038;SDS011;13815;52.374;4.882;2022-07-29T14:41:36;34.97;;;24.60;;
26038;SDS011;13815;52.374;4.882;2022-07-29T14:44:01;34.97;;;24.80;;
26038;SDS011;13815;52.374;4.882;2022-07-29T14:46:27;35.00;;;24.98;;
26038;SDS011;13815;52.374;4.882;2022-07-29T14:48:52;34.42;;;25.02;;
26038;SDS011;13815;52.374;4.882;2022-07-29T14:51:18;35.35;;;25.13;;
26038;SDS011;13815;52.374;4.882;2022-07-29T14:53:43;34.33;;;24.83;;
26038;SDS011;13815;52.374;4.882;2022-07-29T14:56:09;35.10;;;25.08;;
26038;SDS011;13815;52.374;4.882;2022-07-29T14:58:37;35.08;;;25.05;;
26038;SDS011;13815;52.374;4.882;2022-07-29T15:01:03;34.00;;;24.13;;
26038;SDS011;13815;52.374;4.882;2022-07-29T15:03:28;35.08;;;24.92;;
26038;SDS011;13815;52.374;4.882;2022-07-29T15:05:54;34.40;;;24.77;;
26038;SDS011;13815;52.374;4.882;2022-07-29T15:08:20;34.40;;;24.63;;
26038;SDS011;13815;52.374;4.882;2022-07-29T15:10:45;34.53;;;24.45;;
26038;SDS011;13815;52.374;4.882;2022-07-29T15:13:11;34.10;;;24.15;;